Dead River Township, Maine
Current Conditions -  °F | °C
As of 11:15 AM on Thursday 23 Oct 2014 (Local Time) from KWVL Reporting Station
Overcast Overcast  
Wind Chill: 42°   Ceiling: 800
Heat Index: 48°   Visibility: 3mi
Dew Point: 43°   Wind: 17mph
Humidity: 82%   Direction: 30°NNE
Pressure: 29.85"   Gusts: 30mph
Location:  45.0341°N, 70.0886°W
Report Text: KWVL 231515Z 03015G26KT 3SM BKN008 OVC012 09/06 A2985 RMK AO1 P0010
Loading
Personal Weather Stations






























Interactive Weather Map
Tropical Storm Tracking
New forecast layout! Learn more

10-Day Weather Forecast

Advertisements
Track Severe Weather on mobile